CheckWX is a tool to help pilots better visualize weather data.  It is not intended as a substitute for an official pre-flight weather briefing.

08:40:30 UTC

KSWF METAR
Stewart International Airport
New York, New York, USA
Current

56 mins ago

KSWF 220745Z 27005KT 10SM OVC040 02/M03 A3020
Observed
Feb-22 @ 07:45 UTC
Wind
  • 270° at 5 KTS
Visibility
10 SM
Flight Rules
VFR
Cloud Levels
  • Overcast at 4,000' AGL
Temperature
C / 36°F
Dewpoint
-3°C / 27°F
Humidity
70%
Altimeter
30.2" Hg
Pressure
1022.72 hPa
Previous

2 hours ago

KSWF 220645Z 27005KT 10SM OVC040 02/M03 A3018
Observed
Feb-22 @ 06:45 UTC
Wind
  • 270° at 5 KTS
Visibility
10 SM
Flight Rules
VFR
Cloud Levels
  • Overcast at 4,000' AGL
Temperature
C / 36°F
Dewpoint
-3°C / 27°F
Humidity
70%
Altimeter
30.18" Hg
Pressure
1022.02 hPa
Previous

3 hours ago

KSWF 220545Z 27005KT 10SM FEW040 02/M04 A3016
Observed
Feb-22 @ 05:45 UTC
Wind
  • 270° at 5 KTS
Visibility
10 SM
Flight Rules
VFR
Cloud Levels
  • Few at 4,000' AGL
Temperature
C / 36°F
Dewpoint
-4°C / 25°F
Humidity
65%
Altimeter
30.16" Hg
Pressure
1021.32 hPa